Latest Coastal Weather Observations for Derby

IDW60701

Issued at 1:13 pm WST Tuesday 21 February 2017 (issued every 10 minutes, with the page automatically refreshed every 10 minutes)

About coastal observations | Map of coastal stations | Coastal observations for WA | Marine services | Other Formats
Station Details ID: 003032 Name: DERBY AERO Lat: -17.37 Lon: 123.66 Height: 6.2 m
Data from the previous 72 hours. | See also: Recent months at Derby
Date/Time
WST
Temp
°C
Wind Pressure Rain since
9am
mm
Weather Cloud Vis
km
Sea
Height
m
Swell
Dir  Spd
kts
Gust
kts
hPa Trend Height
m
Period
s
Dir
21/01:00pm 34.0 NW 9 12 1009.3 - 0.0 - - - - - - -
21/12:30pm 34.1 WNW 5 9 1009.6 - 0.0 - - - - - - -
21/12:00pm 32.9 WSW 6 9 1010.1 - 0.0 - - - - - - -
21/11:30am 32.2 WSW 5 7 1010.6 - 0.0 - - - - - - -
21/11:00am 32.2 W 6 8 1011.1 - 0.0 - - - - - - -
21/10:30am 31.3 WSW 6 8 1011.5 - 0.0 - - - - - - -
21/10:00am 31.3 WSW 6 7 1011.9 - 0.0 - - - - - - -
21/09:30am 31.4 NW 5 7 1012.3 - 0.0 - - - - - - -
21/09:00am 31.2 NW 4 5 1012.4 - 0.0 - - - - - - -
21/08:30am 30.0 NW 3 4 1012.4 - 0.0 - - - - - - -
21/08:00am 29.3 NW 4 6 1012.3 - 0.0 - - - - - - -
21/07:30am 29.0 NNE 4 5 1012.0 - 0.0 - - - - - - -
21/07:00am 28.7 CALM 0 2 1011.7 - 0.0 - - - - - - -
21/06:30am 27.3 CALM 0 0 1011.3 - 0.0 - - - - - - -
21/06:00am 26.8 NNE 3 5 1010.9 - 0.0 - - - - - - -
21/05:30am 27.1 WSW 1 3 1010.1 - 0.0 - - - - - - -
21/05:00am 27.2 SW 4 6 1009.7 - 0.0 - - - - - - -
21/04:30am 27.4 WSW 4 6 1009.3 - 0.0 - - - - - - -
21/04:00am 27.4 WSW 5 6 1009.2 - 0.0 - - - - - - -
21/03:30am 27.5 WSW 4 6 1008.9 - 0.0 - - - - - - -
21/03:00am 27.5 WSW 6 7 1008.9 - 0.0 - - - - - - -
21/02:30am 27.5 SW 6 7 1008.8 - 0.0 - - - - - - -
21/02:00am 27.4 SW 5 6 1008.8 - 0.0 - - - - - - -
21/01:30am 27.6 SW 5 7 1009.0 - 0.0 - - - - - - -
21/01:00am 27.6 SW 5 6 1009.1 - 0.0 - - - - - - -
21/12:30am 27.7 SW 6 8 1009.3 - 0.0 - - - - - - -
21/12:00am 28.0 WSW 8 11 1009.4 - 0.0 - - - - - - -
 
Date/Time
WST
Temp
°C
Wind Pressure Rain since
9am
mm
Weather Cloud Vis
km
Sea
Height
m
Swell
Dir  Spd
kts
Gust
kts
hPa Trend Height
m
Period
s
Dir
20/11:30pm 28.2 WSW 9 11 1009.5 - 0.0 - - - - - - -
20/11:00pm 28.4 WSW 9 11 1009.5 - 0.0 - - - - - - -
20/10:30pm 28.4 WSW 6 7 1009.7 - 0.0 - - - - - - -
20/10:00pm 28.5 WSW 6 7 1009.7 - 0.0 - - - - - - -
20/09:30pm 28.6 NW 4 5 1009.8 - 0.0 - - - - - - -
20/09:00pm 29.0 WNW 5 7 1009.7 - 0.0 - - - - - - -
20/08:30pm 29.1 WNW 8 11 1009.4 - 0.0 - - - - - - -
20/08:00pm 29.7 NW 11 13 1009.3 - 0.0 - - - - - - -
20/07:30pm 30.0 NW 10 12 1009.0 - 0.0 - - - - - - -
20/07:00pm 30.3 NNW 11 13 1008.5 - 0.0 - - - - - - -
20/06:30pm 30.7 NW 9 12 1008.0 - 0.0 - - - - - - -
20/06:00pm 31.2 NW 8 10 1007.1 - 0.0 - - - - - - -
20/05:30pm 32.3 NW 8 11 1006.7 - 0.0 - - - - - - -
20/05:00pm 32.9 WNW 8 11 1006.3 - 0.0 - - - - - - -
20/04:30pm 33.3 WNW 9 11 1006.3 - 0.0 - - - - - - -
20/04:00pm 33.7 WNW 7 10 1005.9 - 0.0 - - - - - - -
20/03:30pm 34.3 W 6 8 1006.0 - 0.0 - - - - - - -
20/03:00pm 34.4 NW 5 8 1006.0 - 0.0 - - - - - - -
20/02:30pm 34.0 NNE 5 9 1006.3 - 0.0 - - - - - - -
20/02:00pm 33.8 N 6 9 1006.5 - 0.0 - - - - - - -
20/01:30pm 33.8 N 5 8 1006.8 - 0.0 - - - - - - -
20/01:00pm 32.9 N 5 9 1007.1 - 0.0 - - - - - - -
20/12:30pm 32.8 N 5 7 1007.5 - 0.0 - - - - - - -
20/12:00pm 32.5 E 7 11 1008.1 - 0.0 - - - - - - -
20/11:30am 31.6 ENE 8 12 1008.6 - 0.0 - - - - - - -
20/11:00am 31.1 S 6 8 1009.0 - 0.0 - - - - - - -
20/10:30am 30.4 SSE 5 7 1009.2 - 0.0 - - - - - - -
20/10:00am 30.3 S 7 9 1009.3 - 0.0 - - - - - - -
20/09:30am 30.0 S 7 9 1009.5 - 0.0 - - - - - - -
20/09:00am 30.3 SSE 8 10 1009.9 - 22.2 - - - - - - -
20/08:30am 29.9 SSE 7 9 1010.1 - 22.2 - - - - - - -
20/08:00am 28.8 ESE 5 7 1010.1 - 22.2 - - - - - - -
20/07:30am 26.3 ESE 7 9 1010.0 - 22.2 - - - - - - -
20/07:00am 25.6 ESE 9 12 1009.7 - 22.2 - - - - - - -
20/06:30am 25.5 SE 9 11 1009.1 - 22.2 - - - - - - -
20/06:00am 25.3 S 6 7 1008.8 - 22.2 - - - - - - -
20/05:30am 24.9 SSE 7 9 1008.8 - 22.2 - - - - - - -
20/05:00am 24.7 SSE 6 7 1008.6 - 22.2 - - - - - - -
20/04:30am 24.6 SSE 5 6 1008.7 - 22.2 - - - - - - -
20/04:00am 24.7 SE 5 6 1008.6 - 22.2 - - - - - - -
20/03:30am 24.7 SE 9 11 1008.3 - 22.2 - - - - - - -
20/03:00am 24.9 SE 7 8 1008.3 - 22.2 - - - - - - -
20/02:30am 25.2 SE 6 7 1008.2 - 22.2 - - - - - - -
20/02:00am 25.8 N 1 5 1007.8 - 22.2 - - - - - - -
20/01:30am 25.3 NNW 8 11 1007.4 - 22.2 - - - - - - -
20/01:00am 24.8 N 10 14 1007.9 - 21.8 - - - - - - -
20/12:30am 24.9 W 9 13 1008.0 - 21.8 - - - - - - -
20/12:00am 24.5 WSW 12 23 1008.9 - 21.8 Recent precip. - - - - - -
 
Date/Time
WST
Temp
°C
Wind Pressure Rain since
9am
mm
Weather Cloud Vis
km
Sea
Height
m
Swell
Dir  Spd
kts
Gust
kts
hPa Trend Height
m
Period
s
Dir
19/11:51pm 23.9 NW 9 12 1008.3 - 21.8 - - - - - - -
19/11:30pm 23.6 ESE 9 12 1010.3 - 16.4 - - - - - - -
19/11:00pm 24.2 E 9 13 1011.2 - 4.0 - - - - - - -
19/10:30pm 26.1 ENE 11 16 1011.0 - 0.0 - - - - - - -
19/10:00pm 27.2 NE 12 16 1010.5 - 0.0 - - - - - - -
19/09:30pm 27.5 N 13 18 1009.6 - 0.0 - - - - - - -
19/09:00pm 27.9 N 10 13 1009.3 - 0.0 - - - - - - -
19/08:30pm 28.2 N 13 17 1009.0 - 0.0 - - - - - - -
19/08:00pm 30.0 N 15 21 1008.8 - 0.0 - - - - - - -
19/07:30pm 30.2 N 13 16 1008.3 - 0.0 - - - - - - -
19/07:00pm 30.3 N 12 16 1007.6 - 0.0 - - - - - - -
19/06:30pm 30.7 N 12 17 1007.0 - 0.0 - - - - - - -
19/06:00pm 31.2 N 12 19 1006.9 - 0.0 - - - - - - -
19/05:30pm 31.6 NNW 14 19 1006.2 - 0.0 - - - - - - -
19/05:00pm 32.3 NNW 15 19 1005.6 - 0.0 - - - - - - -
19/04:30pm 33.2 NNW 12 15 1005.9 - 0.0 - - - - - - -
19/04:00pm 33.1 NNW 13 16 1005.8 - 0.0 - - - - - - -
19/03:30pm 33.5 NNW 13 16 1005.8 - 0.0 - - - - - - -
19/03:00pm 34.4 NW 12 15 1006.0 - 0.0 - - - - - - -
19/02:30pm 34.8 WNW 8 11 1006.2 - 0.0 - - - - - - -
19/02:00pm 35.3 W 8 12 1006.4 - 0.0 - - - - - - -
19/01:30pm 34.2 WSW 7 10 1006.6 - 0.0 - - - - - - -
19/01:00pm 34.6 WSW 7 10 1007.0 - 0.0 - - - - - - -
19/12:30pm 34.2 WSW 9 12 1007.3 - 0.0 - - - - - - -
19/12:00pm 34.0 WSW 9 13 1007.5 - 0.0 - - - - - - -
19/11:30am 32.8 WSW 8 11 1008.3 - 0.0 - - - - - - -
19/11:00am 32.9 WSW 9 12 1009.0 - 0.0 - - - - - - -
19/10:30am 32.5 W 11 14 1009.3 - 0.0 - - - - - - -
19/10:00am 31.9 WSW 10 12 1009.8 - 0.0 - - - - - - -
19/09:30am 31.5 WSW 10 13 1010.2 - 0.0 - - - - - - -
19/09:00am 30.8 WSW 11 16 1010.2 - 0.0 - - - - - - -
19/08:30am 29.9 SW 12 15 1010.3 - 0.0 - - - - - - -
19/08:00am 29.7 SW 11 15 1010.3 - 0.0 - - - - - - -
19/07:30am 28.8 SW 10 14 1010.2 - 0.0 - - - - - - -
19/07:00am 27.8 SW 9 12 1010.2 - 0.0 - - - - - - -
19/06:30am 27.5 SW 9 11 1009.8 - 0.0 - - - - - - -
19/06:00am 26.9 SW 7 10 1009.5 - 0.0 - - - - - - -
19/05:30am 26.7 SW 9 11 1009.1 - 0.0 - - - - - - -
19/05:00am 26.8 SW 9 11 1008.9 - 0.0 - - - - - - -
19/04:30am 26.8 WSW 10 12 1008.8 - 0.0 - - - - - - -
19/04:00am 26.8 WSW 9 11 1008.3 - 0.0 - - - - - - -
19/03:30am 26.9 W 8 11 1008.2 - 0.0 - - - - - - -
19/03:00am 27.1 WSW 9 12 1008.3 - 0.0 - - - - - - -
19/02:30am 27.2 WSW 8 10 1008.4 - 0.0 - - - - - - -
19/02:00am 27.4 WSW 10 13 1008.5 - 0.0 - - - - - - -
19/01:30am 27.5 WSW 10 13 1008.7 - 0.0 - - - - - - -
19/01:00am 27.8 WSW 9 12 1009.2 - 0.0 - - - - - - -
19/12:30am 27.8 WSW 11 14 1009.2 - 0.0 - - - - - - -
19/12:00am 28.0 W 11 15 1009.5 - 0.0 - - - - - - -
 
Date/Time
WST
Temp
°C
Wind Pressure Rain since
9am
mm
Weather Cloud Vis
km
Sea
Height
m
Swell
Dir  Spd
kts
Gust
kts
hPa Trend Height
m
Period
s
Dir
18/11:30pm 28.1 WNW 10 13 1009.7 - 0.0 - - - - - - -
18/11:00pm 28.4 WNW 10 14 1009.6 - 0.0 - - - - - - -
18/10:30pm 28.7 WNW 10 13 1009.8 - 0.0 - - - - - - -
18/10:00pm 29.1 WNW 11 14 1009.7 - 0.0 - - - - - - -
18/09:30pm 29.5 NW 12 15 1009.8 - 0.0 - - - - - - -
18/09:00pm 29.7 NW 11 13 1009.8 - 0.0 - - - - - - -
18/08:30pm 29.7 NW 11 14 1009.3 - 0.0 - - - - - - -
18/08:00pm 29.6 NNW 14 17 1009.0 - 0.0 - - - - - - -
18/07:30pm 29.7 NNW 14 18 1008.9 - 0.0 - - - - - - -
18/07:00pm 30.3 NNW 12 15 1008.6 - 0.0 - - - - - - -
18/06:30pm 31.1 NW 10 11 1008.4 - 0.0 - - - - - - -
18/06:00pm 32.3 WNW 5 7 1008.3 - 0.0 - - - - - - -
18/05:30pm 34.1 W 3 6 1008.1 - 0.0 - - - - - - -
18/05:00pm 34.1 W 5 7 1008.0 - 0.0 - - - - - - -
18/04:30pm 34.2 SSW 4 6 1008.0 - 0.0 - - - - - - -
18/04:00pm 34.0 SSW 5 8 1008.3 - 0.0 - - - - - - -
18/03:30pm 34.0 SSW 7 11 1008.5 - 0.0 - - - - - - -
18/03:00pm 33.8 S 4 7 1008.6 - 0.0 - - - - - - -
18/02:30pm 33.7 SSW 4 7 1009.0 - 0.0 - - - - - - -
18/02:00pm 33.0 SSW 5 8 1009.3 - 0.0 - - - - - - -
18/01:30pm 33.1 S 3 7 1009.7 - 0.0 - - - - - - -

Other Formats:

Comma delimited format used in spreadsheet applications
http://www.bom.gov.au/fwo/IDW60701/IDW60701.95205.axf

JavaScript Object Notation format (JSON) in row-major order
http://www.bom.gov.au/fwo/IDW60701/IDW60701.95205.json